createdAt,value
2019-05-03T00:00:07.464Z,8.34
2019-05-03T00:01:07.686Z,8.21
2019-05-03T00:02:07.858Z,8.23
2019-05-03T00:03:08.079Z,8.24
2019-05-03T00:04:08.247Z,8.32
2019-05-03T00:05:08.449Z,8.23
2019-05-03T00:06:08.631Z,8.26
2019-05-03T00:07:08.843Z,8.26
2019-05-03T00:08:09.023Z,8.20
2019-05-03T00:09:09.190Z,8.21
2019-05-03T00:10:09.363Z,8.16
2019-05-03T00:11:09.526Z,8.11
2019-05-03T00:12:09.743Z,8.18
2019-05-03T00:13:09.938Z,8.18
2019-05-03T00:14:10.097Z,8.21
2019-05-03T00:15:12.013Z,8.26
2019-05-03T00:16:12.219Z,8.16
2019-05-03T00:17:11.725Z,8.24
2019-05-03T00:18:11.932Z,8.18
2019-05-03T00:19:12.720Z,8.23
2019-05-03T00:20:11.649Z,8.21
2019-05-03T00:21:12.504Z,8.24
2019-05-03T00:22:12.661Z,8.26
2019-05-03T00:23:12.155Z,8.26
2019-05-03T00:24:12.986Z,8.42
2019-05-03T00:25:12.880Z,8.32
2019-05-03T00:26:13.387Z,8.35
2019-05-03T00:27:12.694Z,8.52
2019-05-03T00:28:13.778Z,8.36
2019-05-03T00:29:12.928Z,8.35
2019-05-03T00:30:13.139Z,8.34
2019-05-03T00:31:13.323Z,8.24
2019-05-03T00:32:13.502Z,8.27
2019-05-03T00:33:13.691Z,8.21
2019-05-03T00:34:13.874Z,8.24
2019-05-03T00:35:14.067Z,8.26
2019-05-03T00:36:14.268Z,8.21
2019-05-03T00:37:14.459Z,8.32
2019-05-03T00:38:14.670Z,8.27
2019-05-03T00:39:14.892Z,8.32
2019-05-03T00:40:15.088Z,8.26
2019-05-03T00:41:15.317Z,8.31
2019-05-03T00:42:15.513Z,8.21
2019-05-03T00:43:15.733Z,8.24
2019-05-03T00:44:15.923Z,8.21
2019-05-03T00:45:16.101Z,8.13
2019-05-03T00:46:16.295Z,8.14
2019-05-03T00:47:16.491Z,8.09
2019-05-03T00:48:16.651Z,8.06
2019-05-03T00:49:16.879Z,8.13
2019-05-03T00:50:17.097Z,8.01
2019-05-03T00:51:17.317Z,8.09
2019-05-03T00:52:17.518Z,7.88
2019-05-03T00:53:17.722Z,8.02
2019-05-03T00:54:17.955Z,8.02
2019-05-03T00:55:19.246Z,8.09
2019-05-03T00:56:19.322Z,8.11
2019-05-03T00:57:18.474Z,8.14
2019-05-03T00:58:18.690Z,8.18
2019-05-03T00:59:18.939Z,8.14
2019-05-03T01:00:19.010Z,8.26
2019-05-03T01:01:19.207Z,8.18
2019-05-03T01:02:19.391Z,8.28
2019-05-03T01:03:19.593Z,8.16
2019-05-03T01:04:19.801Z,8.13
2019-05-03T01:05:19.999Z,8.09
2019-05-03T01:06:22.272Z,8.08
2019-05-03T01:07:22.107Z,8.06
2019-05-03T01:08:22.003Z,8.08
2019-05-03T01:09:22.548Z,8.13
2019-05-03T01:10:22.627Z,8.01
2019-05-03T01:11:22.275Z,8.08
2019-05-03T01:12:22.339Z,8.05
2019-05-03T01:13:21.963Z,8.09
2019-05-03T01:14:22.710Z,8.06
2019-05-03T01:15:21.925Z,8.03
2019-05-03T01:16:22.668Z,8.09
2019-05-03T01:17:23.362Z,7.88
2019-05-03T01:18:22.507Z,7.93
2019-05-03T01:19:22.814Z,7.99
2019-05-03T01:20:23.923Z,7.95
2019-05-03T01:21:23.080Z,7.95
2019-05-03T01:22:23.302Z,7.96
2019-05-03T01:23:23.491Z,7.98
2019-05-03T01:24:23.699Z,8.05
2019-05-03T01:25:32.289Z,7.90
2019-05-03T01:26:26.098Z,7.95
2019-05-03T01:27:24.263Z,7.84
2019-05-03T01:28:25.383Z,7.83
2019-05-03T01:29:24.568Z,7.87
2019-05-03T01:30:24.751Z,7.95
2019-05-03T01:31:25.011Z,7.96
2019-05-03T01:32:25.098Z,7.87
2019-05-03T01:33:25.315Z,7.91
2019-05-03T01:34:25.508Z,7.87
2019-05-03T01:35:25.693Z,7.84
2019-05-03T01:36:25.926Z,7.88
2019-05-03T01:37:26.146Z,7.93
2019-05-03T01:38:26.357Z,7.95
2019-05-03T01:39:26.534Z,7.88
2019-05-03T01:40:26.707Z,7.85
2019-05-03T01:41:26.929Z,7.87
2019-05-03T01:42:27.124Z,7.93
2019-05-03T01:43:27.330Z,7.90
2019-05-03T01:44:27.537Z,8.03
2019-05-03T01:45:27.749Z,8.01
2019-05-03T01:46:27.978Z,7.84
2019-05-03T01:47:28.181Z,7.93
2019-05-03T01:48:28.403Z,7.96
2019-05-03T01:49:28.612Z,7.85
2019-05-03T01:50:28.827Z,7.91
2019-05-03T01:51:29.036Z,7.83
2019-05-03T01:52:29.210Z,7.93
2019-05-03T01:53:29.393Z,7.87
2019-05-03T01:54:29.605Z,7.93
2019-05-03T01:55:41.848Z,7.83
2019-05-03T01:56:31.676Z,7.98
2019-05-03T01:57:30.144Z,7.87
2019-05-03T01:58:31.914Z,7.95
2019-05-03T01:59:32.055Z,7.98
2019-05-03T02:00:31.892Z,7.91
2019-05-03T02:01:31.600Z,7.90
2019-05-03T02:02:32.413Z,7.96
2019-05-03T02:03:32.540Z,7.91
2019-05-03T02:04:32.334Z,7.85
2019-05-03T02:05:32.478Z,7.98
2019-05-03T02:06:31.873Z,7.88
2019-05-03T02:07:32.878Z,7.93
2019-05-03T02:08:32.658Z,7.80
2019-05-03T02:09:33.218Z,7.84
2019-05-03T02:10:32.362Z,7.84
2019-05-03T02:11:32.659Z,7.96
2019-05-03T02:12:33.771Z,7.98
2019-05-03T02:13:32.961Z,7.87
2019-05-03T02:14:33.139Z,7.98
2019-05-03T02:15:33.294Z,7.83
2019-05-03T02:16:33.465Z,7.99
2019-05-03T02:17:33.635Z,7.98
2019-05-03T02:18:34.823Z,7.98
2019-05-03T02:19:33.989Z,8.09
2019-05-03T02:20:34.165Z,7.99
2019-05-03T02:21:34.329Z,8.14
2019-05-03T02:22:34.482Z,8.14
2019-05-03T02:23:34.648Z,8.09
2019-05-03T02:24:34.815Z,8.16
2019-05-03T02:25:35.010Z,8.14
2019-05-03T02:26:35.173Z,8.11
2019-05-03T02:27:35.377Z,8.02
2019-05-03T02:28:35.591Z,8.13
2019-05-03T02:29:35.784Z,8.11
2019-05-03T02:30:35.986Z,8.09
2019-05-03T02:31:36.140Z,8.08
2019-05-03T02:32:36.302Z,8.11
2019-05-03T02:33:37.481Z,8.06
2019-05-03T02:34:36.628Z,8.11
2019-05-03T02:35:36.816Z,8.05
2019-05-03T02:36:36.977Z,8.14
2019-05-03T02:37:37.156Z,8.13
2019-05-03T02:38:37.330Z,8.14
2019-05-03T02:39:37.536Z,8.11
2019-05-03T02:40:37.736Z,7.96
2019-05-03T02:41:37.976Z,8.01
2019-05-03T02:42:38.184Z,8.02
2019-05-03T02:43:38.404Z,7.85
2019-05-03T02:44:38.600Z,7.95
2019-05-03T02:45:38.815Z,7.88
2019-05-03T02:46:39.022Z,7.85
2019-05-03T02:47:39.195Z,7.84
2019-05-03T02:48:39.391Z,7.83
2019-05-03T02:49:39.598Z,7.77
2019-05-03T02:50:39.815Z,7.75
2019-05-03T02:51:40.024Z,7.72
2019-05-03T02:52:40.216Z,7.80
2019-05-03T02:53:40.411Z,7.80
2019-05-03T02:54:40.600Z,7.70
2019-05-03T02:55:40.792Z,7.75
2019-05-03T02:56:41.014Z,7.72
2019-05-03T02:57:41.094Z,7.72
2019-05-03T02:58:41.272Z,7.72
2019-05-03T02:59:41.481Z,7.72
2019-05-03T03:00:41.685Z,7.69
2019-05-03T03:01:41.887Z,7.75
2019-05-03T03:02:42.047Z,7.80
2019-05-03T03:03:45.433Z,7.80
2019-05-03T03:04:42.378Z,7.74
2019-05-03T03:05:42.551Z,7.61
2019-05-03T03:06:45.296Z,7.64
2019-05-03T03:07:45.743Z,7.62
2019-05-03T03:08:45.391Z,7.53
2019-05-03T03:09:45.261Z,7.55
2019-05-03T03:10:45.613Z,7.53
2019-05-03T03:11:45.798Z,7.50
2019-05-03T03:12:46.408Z,7.53
2019-05-03T03:13:45.730Z,7.46
2019-05-03T03:14:45.556Z,7.51
2019-05-03T03:15:45.837Z,7.47
2019-05-03T03:16:45.764Z,7.43
2019-05-03T03:17:45.874Z,7.50
2019-05-03T03:18:45.890Z,7.46
2019-05-03T03:19:46.180Z,7.48
2019-05-03T03:20:46.191Z,7.47
2019-05-03T03:21:46.699Z,7.51
2019-05-03T03:22:46.521Z,7.41
2019-05-03T03:23:46.149Z,7.31
2019-05-03T03:24:46.859Z,7.43
2019-05-03T03:25:46.318Z,7.47
2019-05-03T03:26:47.559Z,7.41
2019-05-03T03:27:46.402Z,7.46
2019-05-03T03:28:46.580Z,7.55
2019-05-03T03:29:46.768Z,7.53
2019-05-03T03:30:48.520Z,7.55
2019-05-03T03:31:48.696Z,7.55
2019-05-03T03:32:48.505Z,7.50
2019-05-03T03:33:47.850Z,7.47
2019-05-03T03:34:55.042Z,7.55
2019-05-03T03:35:49.843Z,7.55
2019-05-03T03:36:59.582Z,7.58
2019-05-03T03:37:50.160Z,7.44
2019-05-03T03:38:48.310Z,7.59
2019-05-03T03:39:48.473Z,7.58
2019-05-03T03:40:48.646Z,7.58
2019-05-03T03:41:48.842Z,7.56
2019-05-03T03:42:49.039Z,7.47
2019-05-03T03:43:49.230Z,7.40
2019-05-03T03:44:49.389Z,7.46
2019-05-03T03:45:49.568Z,7.48
2019-05-03T03:46:49.746Z,7.36
2019-05-03T03:47:49.926Z,7.43
2019-05-03T03:48:50.127Z,7.43
2019-05-03T03:49:50.284Z,7.43
2019-05-03T03:50:50.453Z,7.41
2019-05-03T03:51:50.628Z,7.39
2019-05-03T03:52:50.829Z,7.37
2019-05-03T03:53:51.012Z,7.33
2019-05-03T03:54:51.206Z,7.39
2019-05-03T03:55:51.415Z,7.43
2019-05-03T03:56:59.410Z,7.43
2019-05-03T03:57:55.676Z,7.46
2019-05-03T03:58:55.360Z,7.47
2019-05-03T03:59:52.115Z,7.44
2019-05-03T04:00:52.306Z,7.50
2019-05-03T04:01:54.953Z,7.51
2019-05-03T04:02:55.062Z,7.51
2019-05-03T04:03:52.824Z,7.58
2019-05-03T04:04:55.987Z,7.70
2019-05-03T04:05:55.402Z,7.50
2019-05-03T04:06:58.438Z,7.47
2019-05-03T04:07:56.173Z,7.43
2019-05-03T04:08:56.038Z,7.56
2019-05-03T04:09:56.205Z,7.36
2019-05-03T04:10:55.869Z,7.33
2019-05-03T04:11:56.739Z,7.36
2019-05-03T04:12:56.092Z,7.29
2019-05-03T04:13:56.048Z,7.33
2019-05-03T04:14:56.359Z,7.31
2019-05-03T04:15:56.301Z,7.19
2019-05-03T04:16:56.349Z,7.13
2019-05-03T04:17:56.727Z,7.19
2019-05-03T04:18:56.515Z,7.15
2019-05-03T04:19:56.019Z,7.23
2019-05-03T04:20:56.925Z,7.29
2019-05-03T04:21:56.211Z,7.28
2019-05-03T04:22:57.288Z,7.31
2019-05-03T04:23:56.436Z,7.31
2019-05-03T04:24:56.628Z,7.37
2019-05-03T04:25:57.001Z,7.22
2019-05-03T04:27:13.772Z,7.23
2019-05-03T04:27:58.130Z,7.33
2019-05-03T04:28:57.301Z,7.15
2019-05-03T04:29:57.495Z,7.07
2019-05-03T04:30:57.704Z,7.11
2019-05-03T04:31:57.929Z,7.14
2019-05-03T04:32:58.122Z,7.00
2019-05-03T04:33:58.305Z,7.13
2019-05-03T04:34:58.505Z,7.00
2019-05-03T04:35:58.613Z,7.14
2019-05-03T04:36:58.837Z,7.11
2019-05-03T04:37:59.016Z,7.15
2019-05-03T04:38:59.193Z,7.15
2019-05-03T04:39:59.398Z,7.05
2019-05-03T04:40:59.595Z,7.03
2019-05-03T04:41:59.811Z,7.14
2019-05-03T04:43:00.004Z,7.11
2019-05-03T04:44:00.186Z,7.21
2019-05-03T04:45:00.370Z,7.19
2019-05-03T04:46:00.548Z,7.05
2019-05-03T04:47:00.735Z,7.08
2019-05-03T04:48:01.948Z,7.05
2019-05-03T04:49:01.113Z,7.08
2019-05-03T04:50:01.299Z,7.05
2019-05-03T04:51:01.482Z,7.14
2019-05-03T04:52:01.678Z,7.18
2019-05-03T04:53:01.907Z,7.19
2019-05-03T04:54:01.994Z,7.13
2019-05-03T04:55:02.175Z,7.10
2019-05-03T04:56:05.524Z,7.11
2019-05-03T04:57:02.565Z,7.14
2019-05-03T04:58:04.794Z,7.21
2019-05-03T04:59:05.087Z,7.22
2019-05-03T05:00:05.643Z,7.25
2019-05-03T05:01:06.280Z,7.25
2019-05-03T05:02:05.850Z,7.23
2019-05-03T05:03:05.638Z,7.22
2019-05-03T05:04:05.313Z,7.25
2019-05-03T05:05:06.029Z,7.29
2019-05-03T05:06:06.295Z,7.44
2019-05-03T05:07:06.238Z,7.32
2019-05-03T05:08:06.038Z,7.31
2019-05-03T05:09:05.642Z,7.39
2019-05-03T05:10:05.297Z,7.39
2019-05-03T05:11:10.115Z,7.56
2019-05-03T05:12:05.882Z,7.53
2019-05-03T05:13:06.363Z,7.48
2019-05-03T05:14:06.429Z,7.43
2019-05-03T05:15:06.637Z,7.47
2019-05-03T05:16:06.180Z,7.40
2019-05-03T05:17:06.978Z,7.46
2019-05-03T05:18:06.359Z,7.40
2019-05-03T05:19:06.356Z,7.46
2019-05-03T05:20:06.563Z,7.33
2019-05-03T05:21:06.780Z,7.33
2019-05-03T05:22:06.951Z,7.39
2019-05-03T05:23:07.128Z,7.31
2019-05-03T05:24:07.286Z,7.39
2019-05-03T05:25:07.486Z,7.46
2019-05-03T05:26:07.656Z,7.46
2019-05-03T05:27:07.809Z,7.44
2019-05-03T05:28:07.975Z,7.44
2019-05-03T05:29:08.154Z,7.43
2019-05-03T05:30:08.337Z,7.40
2019-05-03T05:31:08.520Z,7.36
2019-05-03T05:32:08.684Z,7.28
2019-05-03T05:33:08.840Z,7.26
2019-05-03T05:34:09.057Z,7.33
2019-05-03T05:35:09.253Z,7.29
2019-05-03T05:36:09.408Z,7.28
2019-05-03T05:37:09.603Z,7.11
2019-05-03T05:38:09.773Z,7.15
2019-05-03T05:39:09.946Z,7.07
2019-05-03T05:40:10.100Z,7.13
2019-05-03T05:41:10.285Z,7.11
2019-05-03T05:42:10.429Z,7.10
2019-05-03T05:43:10.593Z,7.05
2019-05-03T05:44:10.749Z,7.13
2019-05-03T05:45:10.915Z,7.25
2019-05-03T05:46:11.076Z,7.36
2019-05-03T05:47:11.230Z,7.44
2019-05-03T05:48:11.391Z,7.33
2019-05-03T05:49:11.527Z,7.44
2019-05-03T05:50:11.703Z,7.55
2019-05-03T05:51:13.563Z,7.46
2019-05-03T05:52:15.322Z,7.47
2019-05-03T05:53:12.303Z,7.59
2019-05-03T05:54:14.255Z,7.46
2019-05-03T05:55:12.630Z,7.62
2019-05-03T05:56:12.796Z,7.51
2019-05-03T05:57:14.913Z,7.58
2019-05-03T05:58:13.083Z,7.48
2019-05-03T05:59:14.873Z,7.51
2019-05-03T06:00:15.329Z,7.41
2019-05-03T06:01:14.589Z,7.51
2019-05-03T06:02:15.090Z,7.47
2019-05-03T06:03:15.027Z,7.58
2019-05-03T06:04:15.475Z,7.67
2019-05-03T06:05:15.370Z,7.77
2019-05-03T06:06:15.313Z,7.62
2019-05-03T06:07:15.848Z,7.72
2019-05-03T06:08:15.204Z,7.83
2019-05-03T06:09:16.219Z,7.88
2019-05-03T06:10:16.687Z,7.84
2019-05-03T06:11:16.568Z,7.87
2019-05-03T06:12:15.713Z,7.81
2019-05-03T06:13:15.871Z,7.85
2019-05-03T06:14:16.046Z,7.96
2019-05-03T06:15:16.206Z,8.08
2019-05-03T06:16:16.371Z,8.06
2019-05-03T06:17:16.560Z,8.09
2019-05-03T06:18:16.729Z,8.06
2019-05-03T06:19:16.889Z,8.23
2019-05-03T06:20:17.051Z,8.31
2019-05-03T06:21:17.209Z,8.31
2019-05-03T06:22:17.385Z,8.16
2019-05-03T06:23:17.547Z,8.03
2019-05-03T06:24:17.696Z,7.95
2019-05-03T06:25:17.855Z,8.20
2019-05-03T06:26:18.005Z,8.26
2019-05-03T06:27:18.179Z,8.21
2019-05-03T06:28:20.796Z,8.31
2019-05-03T06:29:19.472Z,8.20
2019-05-03T06:30:18.602Z,8.14
2019-05-03T06:31:21.136Z,7.91
2019-05-03T06:32:19.930Z,7.91
2019-05-03T06:33:19.060Z,7.96
2019-05-03T06:34:19.213Z,7.95
2019-05-03T06:35:19.346Z,7.85
2019-05-03T06:36:19.478Z,7.87
2019-05-03T06:37:19.640Z,7.87
2019-05-03T06:38:19.793Z,7.91
2019-05-03T06:39:19.932Z,7.95
2019-05-03T06:40:20.099Z,7.96
2019-05-03T06:41:20.227Z,7.84
2019-05-03T06:42:22.868Z,7.88
2019-05-03T06:43:20.519Z,7.95
2019-05-03T06:44:24.761Z,7.91
2019-05-03T06:45:24.967Z,8.08
2019-05-03T06:46:23.590Z,8.16
2019-05-03T06:47:25.168Z,8.34
2019-05-03T06:48:22.368Z,8.44
2019-05-03T06:49:25.446Z,8.60
2019-05-03T06:50:25.220Z,8.49
2019-05-03T06:51:24.851Z,8.61
2019-05-03T06:52:27.589Z,8.64
2019-05-03T06:53:25.463Z,8.54
2019-05-03T06:54:28.348Z,8.54
2019-05-03T06:55:24.863Z,8.69
2019-05-03T06:56:28.893Z,8.60
2019-05-03T06:57:25.406Z,8.56
2019-05-03T06:58:31.405Z,8.36
2019-05-03T06:59:25.412Z,8.26
2019-05-03T07:00:24.863Z,8.26
2019-05-03T07:01:25.333Z,8.16
2019-05-03T07:02:25.550Z,7.87
2019-05-03T07:03:25.191Z,7.69
2019-05-03T07:04:25.426Z,7.75
2019-05-03T07:05:25.101Z,7.81
2019-05-03T07:06:34.536Z,7.84
2019-05-03T07:07:28.045Z,7.93
2019-05-03T07:08:26.122Z,7.96
2019-05-03T07:09:25.292Z,8.05
2019-05-03T07:10:25.485Z,8.16
2019-05-03T07:11:25.646Z,8.23
2019-05-03T07:12:25.823Z,8.36
2019-05-03T07:13:25.954Z,8.38
2019-05-03T07:14:26.163Z,8.49
2019-05-03T07:15:26.359Z,8.60
2019-05-03T07:16:26.526Z,8.59
2019-05-03T07:17:26.708Z,8.64
2019-05-03T07:18:26.893Z,8.68
2019-05-03T07:19:27.099Z,8.84
2019-05-03T07:20:27.294Z,9.08
2019-05-03T07:21:27.456Z,9.02
2019-05-03T07:22:27.654Z,9.09
2019-05-03T07:23:27.826Z,9.09
2019-05-03T07:24:28.029Z,9.09
2019-05-03T07:25:28.255Z,8.82
2019-05-03T07:26:28.436Z,8.90
2019-05-03T07:27:28.605Z,9.05
2019-05-03T07:28:28.806Z,9.09
2019-05-03T07:29:28.979Z,8.97
2019-05-03T07:30:29.187Z,9.12
2019-05-03T07:31:29.349Z,9.11
2019-05-03T07:32:31.449Z,9.02
2019-05-03T07:33:30.715Z,8.97
2019-05-03T07:34:29.846Z,8.82
2019-05-03T07:35:30.044Z,9.09
2019-05-03T07:36:30.202Z,9.27
2019-05-03T07:37:30.379Z,9.51
2019-05-03T07:38:30.573Z,9.49
2019-05-03T07:39:30.736Z,9.62
2019-05-03T07:40:30.928Z,9.64
2019-05-03T07:41:31.109Z,9.51
2019-05-03T07:42:31.285Z,9.27
2019-05-03T07:43:31.480Z,9.30
2019-05-03T07:44:31.643Z,9.34
2019-05-03T07:45:31.800Z,9.40
2019-05-03T07:46:31.981Z,9.37
2019-05-03T07:47:32.151Z,9.51
2019-05-03T07:48:32.368Z,9.27
2019-05-03T07:49:32.577Z,9.34
2019-05-03T07:50:33.318Z,9.40
2019-05-03T07:51:34.802Z,8.95
2019-05-03T07:52:34.853Z,8.89
2019-05-03T07:53:34.898Z,9.02
2019-05-03T07:54:34.994Z,9.00
2019-05-03T07:55:35.284Z,9.02
2019-05-03T07:56:35.566Z,8.92
2019-05-03T07:57:35.679Z,8.75
2019-05-03T07:58:35.275Z,8.50
2019-05-03T07:59:35.660Z,8.54
2019-05-03T08:00:35.247Z,8.54
2019-05-03T08:01:35.621Z,8.69
2019-05-03T08:02:36.035Z,8.81
2019-05-03T08:03:35.813Z,8.75
2019-05-03T08:04:35.823Z,8.78
2019-05-03T08:05:36.255Z,8.96
2019-05-03T08:06:35.441Z,9.19
2019-05-03T08:07:35.751Z,9.39
2019-05-03T08:08:36.724Z,9.76
2019-05-03T08:09:35.868Z,9.92
2019-05-03T08:10:36.075Z,9.95
2019-05-03T08:11:36.277Z,10.30
2019-05-03T08:12:36.585Z,10.58
2019-05-03T08:13:36.640Z,10.45
2019-05-03T08:14:36.827Z,10.42
2019-05-03T08:15:36.992Z,10.64
2019-05-03T08:16:37.175Z,10.77
2019-05-03T08:17:37.371Z,10.64
2019-05-03T08:18:37.539Z,10.31
2019-05-03T08:19:37.705Z,9.82
2019-05-03T08:20:37.881Z,9.55
2019-05-03T08:21:39.061Z,9.40
2019-05-03T08:22:38.274Z,9.33
2019-05-03T08:23:38.442Z,9.39
2019-05-03T08:24:38.612Z,9.26
2019-05-03T08:25:38.783Z,9.48
2019-05-03T08:26:38.979Z,9.27
2019-05-03T08:27:39.142Z,9.29
2019-05-03T08:28:39.322Z,9.02
2019-05-03T08:29:39.529Z,9.08
2019-05-03T08:30:39.702Z,8.99
2019-05-03T08:31:39.909Z,9.33
2019-05-03T08:32:40.094Z,9.44
2019-05-03T08:33:40.270Z,9.76
2019-05-03T08:34:40.448Z,9.80
2019-05-03T08:35:40.638Z,9.85
2019-05-03T08:36:40.827Z,9.90
2019-05-03T08:37:41.009Z,9.91
2019-05-03T08:38:41.177Z,9.91
2019-05-03T08:39:41.409Z,10.09
2019-05-03T08:40:41.567Z,9.91
2019-05-03T08:41:41.767Z,9.92
2019-05-03T08:42:41.974Z,9.95
2019-05-03T08:43:42.139Z,9.92
2019-05-03T08:44:42.305Z,10.00
2019-05-03T08:45:44.620Z,10.09
2019-05-03T08:46:47.070Z,10.21
2019-05-03T08:47:44.865Z,10.13
2019-05-03T08:48:43.091Z,9.88
2019-05-03T08:49:45.024Z,9.76
2019-05-03T08:50:45.121Z,9.80
2019-05-03T08:51:44.588Z,9.63
2019-05-03T08:52:45.213Z,9.81
2019-05-03T08:53:45.869Z,9.91
2019-05-03T08:54:44.925Z,10.20
2019-05-03T08:55:45.237Z,10.51
2019-05-03T08:56:45.156Z,10.57
2019-05-03T08:57:45.623Z,10.58
2019-05-03T08:58:45.184Z,10.53
2019-05-03T08:59:45.933Z,10.69
2019-05-03T09:00:45.451Z,10.72
2019-05-03T09:01:46.279Z,10.87
2019-05-03T09:02:45.429Z,10.84
2019-05-03T09:03:45.913Z,10.80
2019-05-03T09:04:46.803Z,10.82
2019-05-03T09:05:46.532Z,10.53
2019-05-03T09:06:46.175Z,10.49
2019-05-03T09:07:46.369Z,10.31
2019-05-03T09:08:46.637Z,10.36
2019-05-03T09:09:46.710Z,10.20
2019-05-03T09:10:46.900Z,10.05
2019-05-03T09:11:47.074Z,9.87
2019-05-03T09:12:47.275Z,9.81
2019-05-03T09:13:47.375Z,9.74
2019-05-03T09:14:48.502Z,9.64
2019-05-03T09:15:48.833Z,9.56
2019-05-03T09:16:48.055Z,9.55
2019-05-03T09:17:48.139Z,9.64
2019-05-03T09:18:48.343Z,9.59
2019-05-03T09:19:48.491Z,9.56
2019-05-03T09:20:48.648Z,9.64
2019-05-03T09:21:48.812Z,9.95
2019-05-03T09:22:49.077Z,10.13
2019-05-03T09:23:49.179Z,10.33
2019-05-03T09:24:49.371Z,10.17
2019-05-03T09:25:49.560Z,10.18
2019-05-03T09:26:49.730Z,10.28
2019-05-03T09:27:50.017Z,10.38
2019-05-03T09:28:50.084Z,10.49
2019-05-03T09:29:50.249Z,10.59
2019-05-03T09:30:50.472Z,10.69
2019-05-03T09:38:27.123Z,10.49
2019-05-03T09:39:06.286Z,10.53
2019-05-03T09:40:06.391Z,10.46
2019-05-03T09:41:06.651Z,10.46
2019-05-03T09:42:06.638Z,10.41
2019-05-03T09:43:06.776Z,10.45
2019-05-03T09:44:06.948Z,10.59
2019-05-03T09:45:07.167Z,10.83
2019-05-03T09:46:07.332Z,11.04
2019-05-03T09:47:07.484Z,11.27
2019-05-03T09:48:07.678Z,12.02
2019-05-03T09:49:13.334Z,11.78
2019-05-03T09:50:09.083Z,11.67
2019-05-03T09:51:08.300Z,11.56
2019-05-03T09:52:08.727Z,11.31
2019-05-03T09:53:09.102Z,11.30
2019-05-03T09:54:08.874Z,11.27
2019-05-03T09:55:09.099Z,11.13
2019-05-03T09:56:09.339Z,11.26
2019-05-03T09:57:09.559Z,10.89
2019-05-03T09:58:09.789Z,10.72
2019-05-03T09:59:10.028Z,10.43
2019-05-03T10:00:10.140Z,10.36
2019-05-03T10:01:11.457Z,10.45
2019-05-03T10:02:11.643Z,10.39
2019-05-03T10:08:15.851Z,10.03
2019-05-03T10:09:15.677Z,10.18
2019-05-03T10:10:15.781Z,10.15
2019-05-03T10:11:16.020Z,10.28
2019-05-03T10:12:17.352Z,10.33
2019-05-03T10:13:23.449Z,10.25
2019-05-03T10:14:19.683Z,10.46
2019-05-03T10:15:17.840Z,10.53
2019-05-03T10:16:18.073Z,10.39
2019-05-03T10:17:18.302Z,10.38
2019-05-03T10:18:18.531Z,10.36
2019-05-03T10:19:18.767Z,10.42
2019-05-03T10:20:18.875Z,10.34
2019-05-03T10:21:19.135Z,10.41
2019-05-03T10:22:19.200Z,10.58
2019-05-03T10:23:19.426Z,10.45
2019-05-03T10:24:19.698Z,10.48
2019-05-03T10:25:19.701Z,10.49
2019-05-03T10:26:20.848Z,10.79
2019-05-03T10:27:19.947Z,11.00
2019-05-03T10:28:20.128Z,11.51
2019-05-03T10:29:20.264Z,12.72
2019-05-03T10:30:20.380Z,13.55
2019-05-03T10:31:20.522Z,13.75
2019-05-03T10:32:20.754Z,13.73
2019-05-03T10:33:20.942Z,13.09
2019-05-03T10:34:21.072Z,12.30
2019-05-03T10:35:21.220Z,12.45
2019-05-03T10:36:21.373Z,12.33
2019-05-03T10:37:21.524Z,12.26
2019-05-03T10:38:21.682Z,12.11
2019-05-03T10:39:21.850Z,11.85
2019-05-03T10:40:22.006Z,11.80
2019-05-03T10:41:22.172Z,11.63
2019-05-03T10:42:24.327Z,11.49
2019-05-03T10:43:24.568Z,11.48
2019-05-03T10:44:24.554Z,11.40
2019-05-03T10:45:25.705Z,11.30
2019-05-03T10:46:25.072Z,11.26
2019-05-03T10:47:25.343Z,11.23
2019-05-03T10:48:24.830Z,11.40
2019-05-03T10:49:24.537Z,11.41
2019-05-03T10:50:25.339Z,11.52
2019-05-03T10:51:24.904Z,11.81
2019-05-03T10:52:25.804Z,11.88
2019-05-03T10:53:24.396Z,12.11
2019-05-03T10:54:24.513Z,12.48
2019-05-03T10:55:25.118Z,12.47
2019-05-03T10:56:26.838Z,12.58
2019-05-03T10:57:26.038Z,12.70
2019-05-03T10:58:25.287Z,12.81
2019-05-03T10:59:25.457Z,12.39
2019-05-03T11:00:48.180Z,13.06
2019-05-03T11:01:27.771Z,13.83
2019-05-03T11:02:26.017Z,14.63
2019-05-03T11:03:26.147Z,15.44
2019-05-03T11:04:26.270Z,15.44
2019-05-03T11:05:27.511Z,15.70
2019-05-03T11:06:26.590Z,15.90
2019-05-03T11:07:26.703Z,16.00
2019-05-03T11:08:26.953Z,16.09
2019-05-03T11:09:27.080Z,16.59
2019-05-03T11:10:27.239Z,16.22
2019-05-03T11:11:27.408Z,16.06
2019-05-03T11:12:27.563Z,16.47
2019-05-03T11:13:27.745Z,16.37
2019-05-03T11:14:28.249Z,16.62
2019-05-03T11:15:28.165Z,16.40
2019-05-03T11:16:28.299Z,15.32
2019-05-03T11:17:28.485Z,14.40
2019-05-03T11:18:28.667Z,14.19
2019-05-03T11:19:28.819Z,13.55
2019-05-03T11:20:32.033Z,13.47
2019-05-03T11:21:31.171Z,13.64
2019-05-03T11:22:30.408Z,13.70
2019-05-03T11:23:29.578Z,13.61
2019-05-03T11:24:29.739Z,13.60
2019-05-03T11:25:30.880Z,13.36
2019-05-03T11:26:30.131Z,13.50
2019-05-03T11:27:30.312Z,14.01
2019-05-03T11:28:30.530Z,14.52
2019-05-03T11:29:30.662Z,14.45
2019-05-03T11:30:30.801Z,14.07
2019-05-03T11:31:30.970Z,13.80
2019-05-03T11:32:31.102Z,13.65
2019-05-03T11:33:31.295Z,13.58
2019-05-03T11:34:31.452Z,13.58
2019-05-03T11:35:31.624Z,14.37
2019-05-03T11:36:31.949Z,14.52
2019-05-03T11:37:34.634Z,13.75
2019-05-03T11:38:32.221Z,13.55
2019-05-03T11:39:34.372Z,13.71
2019-05-03T11:40:34.493Z,13.79
2019-05-03T11:41:32.989Z,13.54
2019-05-03T11:42:35.320Z,13.43
2019-05-03T11:43:34.937Z,13.52
2019-05-03T11:44:33.182Z,12.98
2019-05-03T11:45:35.274Z,13.03
2019-05-03T11:46:35.393Z,13.08
2019-05-03T11:47:34.834Z,13.13
2019-05-03T11:48:35.006Z,13.23
2019-05-03T11:49:34.879Z,13.24
2019-05-03T11:50:35.346Z,13.24
2019-05-03T11:51:35.331Z,13.42
2019-05-03T11:52:35.816Z,14.30
2019-05-03T11:53:35.590Z,15.10
2019-05-03T11:54:36.212Z,15.26
2019-05-03T11:55:35.455Z,14.96
2019-05-03T11:56:35.932Z,14.77
2019-05-03T11:57:36.679Z,15.19
2019-05-03T11:58:35.832Z,14.85
2019-05-03T11:59:36.027Z,14.37
2019-05-03T12:00:36.176Z,14.85
2019-05-03T12:01:36.305Z,15.87
2019-05-03T12:02:36.471Z,16.00
2019-05-03T12:03:36.660Z,15.90
2019-05-03T12:04:36.818Z,16.46
2019-05-03T12:05:36.974Z,16.61
2019-05-03T12:06:37.103Z,16.82
2019-05-03T12:07:40.001Z,16.92
2019-05-03T12:08:38.419Z,16.80
2019-05-03T12:09:37.656Z,16.49
2019-05-03T12:10:51.960Z,17.24
2019-05-03T12:11:39.979Z,17.68
2019-05-03T12:12:38.086Z,17.24
2019-05-03T12:13:38.254Z,17.63
2019-05-03T12:14:38.424Z,17.19
2019-05-03T12:15:38.594Z,16.05
2019-05-03T12:17:12.123Z,15.66
2019-05-03T12:17:51.866Z,14.97
2019-05-03T12:18:50.164Z,14.63
2019-05-03T12:19:42.445Z,14.55
2019-05-03T12:20:40.760Z,14.59
2019-05-03T12:21:40.146Z,13.68
2019-05-03T12:22:40.472Z,13.27
2019-05-03T12:23:40.725Z,13.12
2019-05-03T12:24:40.666Z,13.52
2019-05-03T12:25:40.914Z,14.71
2019-05-03T12:26:44.048Z,15.39
2019-05-03T12:27:44.005Z,16.16
2019-05-03T12:28:41.118Z,16.69
2019-05-03T12:29:40.974Z,17.86
2019-05-03T12:30:41.306Z,18.61
2019-05-03T12:31:41.449Z,18.73
2019-05-03T12:32:41.595Z,18.81
2019-05-03T12:33:41.705Z,18.83
2019-05-03T12:34:41.848Z,17.47
2019-05-03T12:35:42.001Z,16.79
2019-05-03T12:36:42.119Z,16.31
2019-05-03T12:37:42.283Z,15.55
2019-05-03T12:38:42.443Z,15.07
2019-05-03T12:39:42.598Z,14.45
2019-05-03T12:41:08.116Z,14.99
2019-05-03T12:41:42.878Z,14.89
2019-05-03T12:42:45.262Z,14.70
2019-05-03T12:43:43.269Z,14.55
2019-05-03T12:44:43.395Z,14.58
2019-05-03T12:45:43.536Z,14.71
2019-05-03T12:46:45.020Z,14.55
2019-05-03T12:47:45.248Z,14.26
2019-05-03T12:48:44.845Z,14.08
2019-05-03T12:49:45.312Z,14.05
2019-05-03T12:50:46.464Z,14.03
2019-05-03T12:51:45.660Z,14.56
2019-05-03T12:52:50.275Z,15.75
2019-05-03T12:53:46.892Z,16.32
2019-05-03T12:54:45.104Z,17.07
2019-05-03T12:55:45.302Z,16.92
2019-05-03T12:56:45.569Z,17.37
2019-05-03T12:57:45.921Z,16.99
2019-05-03T12:58:46.737Z,15.94
2019-05-03T12:59:45.946Z,16.09
2019-05-03T13:00:48.548Z,15.65
2019-05-03T13:01:47.336Z,15.41
2019-05-03T13:02:46.593Z,14.74
2019-05-03T13:03:46.736Z,14.71
2019-05-03T13:04:46.902Z,14.55
2019-05-03T13:05:47.078Z,14.25
2019-05-03T13:06:47.234Z,13.73
2019-05-03T13:07:47.357Z,13.37
2019-05-03T13:08:47.507Z,12.72
2019-05-03T13:09:47.733Z,12.30
2019-05-03T13:10:47.872Z,12.33
2019-05-03T13:11:55.337Z,12.20
2019-05-03T13:12:53.160Z,12.28
2019-05-03T13:13:49.333Z,12.33
2019-05-03T13:14:48.564Z,12.28
2019-05-03T13:15:48.784Z,12.26
2019-05-03T13:16:48.911Z,12.12
2019-05-03T13:17:49.115Z,12.17
2019-05-03T13:18:49.261Z,12.17
2019-05-03T13:19:49.418Z,12.29
2019-05-03T13:20:49.540Z,12.43
2019-05-03T13:21:49.673Z,12.72
2019-05-03T13:22:49.817Z,13.23